Time;durP1;ratioP1;P1;durP2;ratioP2;P2;SDS_P1;SDS_P2;PMS_P1;PMS_P2;Temp;Humidity;BMP_temperature;BMP_pressure;BME280_temperature;BME280_humidity;BME280_pressure;Samples;Min_cycle;Max_cycle;Signal;HPM_P1;HPM_P2
2023/05/15 00:01:36;;;;;;;;;;;12.80;94.70;;;;;;4935501;29;19911;-97
2023/05/15 00:04:04;;;;;;;;;;;12.80;94.80;;;;;;4934868;29;19963;-96
2023/05/15 00:06:38;;;;;;;;;;;12.80;94.80;;;;;;4934944;29;19938;-96
2023/05/15 00:09:04;;;;;;;;;;;12.80;95.00;;;;;;4935907;29;19923;-96
2023/05/15 00:11:29;;;;;;;;;;;12.80;95.10;;;;;;4934827;29;19986;-96
2023/05/15 00:13:55;;;;;;;;;;;12.70;94.90;;;;;;4935857;29;19911;-96
2023/05/15 00:16:21;;;;;;;;;;;12.60;95.00;;;;;;4937029;29;19934;-96
2023/05/15 00:18:50;;;;;;;;;;;12.50;95.20;;;;;;4938249;29;19895;-96
2023/05/15 00:21:19;;;;;;;;;;;12.50;95.20;;;;;;4941077;29;19926;-96
2023/05/15 00:23:46;;;;;;;;;;;12.40;95.20;;;;;;4940986;29;19911;-96
2023/05/15 00:26:14;;;;;;;;;;;12.40;95.20;;;;;;4939830;29;19922;-96
2023/05/15 00:28:43;;;;;;;;;;;12.30;95.30;;;;;;4939133;29;19911;-96
2023/05/15 00:31:11;;;;;;;;;;;12.20;95.40;;;;;;4939130;29;19962;-96
2023/05/15 00:33:42;;;;;;;;;;;12.10;95.60;;;;;;4938413;29;19911;-96
2023/05/15 00:36:09;;;;;;;;;;;12.10;95.70;;;;;;4937659;29;19926;-96
2023/05/15 00:38:45;;;;;;;;;;;12.10;95.80;;;;;;4939000;29;19911;-96
2023/05/15 00:41:16;;;;;;;;;;;12.00;95.90;;;;;;4939269;29;19934;-96
2023/05/15 00:43:42;;;;;;;;;;;12.10;96.10;;;;;;4938979;29;19917;-96
2023/05/15 00:46:14;;;;;;;;;;;12.10;96.10;;;;;;4940983;29;19969;-96
2023/05/15 00:48:50;;;;;;;;;;;12.10;96.00;;;;;;4957405;29;19895;-96
2023/05/15 00:51:19;;;;;;;;;;;12.00;95.90;;;;;;4943819;29;19911;-96
2023/05/15 00:53:51;;;;;;;;;;;11.90;95.90;;;;;;4942350;29;19911;-96
2023/05/15 00:56:20;;;;;;;;;;;11.90;96.00;;;;;;4944536;29;19910;-96
2023/05/15 00:58:48;;;;;;;;;;;11.90;95.90;;;;;;4960733;29;19911;-96
2023/05/15 01:01:15;;;;;;;;;;;11.90;96.00;;;;;;4944004;29;19911;-96
2023/05/15 01:03:48;;;;;;;;;;;11.90;96.10;;;;;;4943966;29;19978;-96
2023/05/15 01:06:14;;;;;;;;;;;11.80;96.20;;;;;;4943943;29;19922;-96
2023/05/15 01:08:48;;;;;;;;;;;11.90;96.30;;;;;;4952212;29;19923;-96
2023/05/15 01:11:15;;;;;;;;;;;11.90;96.50;;;;;;4924086;29;19918;-96
2023/05/15 01:13:43;;;;;;;;;;;11.90;96.60;;;;;;4924024;29;19911;-96
2023/05/15 01:16:10;;;;;;;;;;;11.90;96.60;;;;;;4924206;29;19918;-96
2023/05/15 01:18:39;;;;;;;;;;;11.90;96.40;;;;;;4925416;29;19896;-96
2023/05/15 01:21:18;;;;;;;;;;;11.90;96.20;;;;;;4941491;29;19987;-96
2023/05/15 01:24:05;;;;;;;;;;;11.80;96.10;;;;;;4924624;29;19935;-96
2023/05/15 01:26:50;;;;;;;;;;;11.80;96.30;;;;;;4924152;29;19923;-96
2023/05/15 01:29:16;;;;;;;;;;;11.80;96.20;;;;;;4924273;29;19911;-96
2023/05/15 01:31:43;;;;;;;;;;;11.60;95.90;;;;;;4938933;29;19953;-96
2023/05/15 01:34:10;;;;;;;;;;;11.50;96.00;;;;;;4923235;29;19923;-96
2023/05/15 01:36:45;;;;;;;;;;;11.50;96.20;;;;;;4923257;29;19911;-96
2023/05/15 01:39:14;;;;;;;;;;;11.40;96.00;;;;;;4923227;29;19918;-96
2023/05/15 01:41:42;;;;;;;;;;;11.40;96.00;;;;;;4922471;29;19911;-96
2023/05/15 01:44:18;;;;;;;;;;;11.40;96.10;;;;;;4923071;29;19919;-96
2023/05/15 01:46:47;;;;;;;;;;;11.30;95.80;;;;;;4923533;29;19900;-96
2023/05/15 01:49:15;;;;;;;;;;;11.20;95.80;;;;;;4922954;29;19911;-96
2023/05/15 01:51:42;;;;;;;;;;;11.20;95.70;;;;;;4923920;29;19915;-96
2023/05/15 01:54:09;;;;;;;;;;;11.20;95.60;;;;;;4940153;29;19911;-96
2023/05/15 01:56:45;;;;;;;;;;;11.20;95.50;;;;;;4924463;29;19911;-96
2023/05/15 01:59:13;;;;;;;;;;;11.10;95.70;;;;;;4924154;29;19926;-96
2023/05/15 02:01:40;;;;;;;;;;;11.20;95.70;;;;;;4923766;29;19971;-96
2023/05/15 02:04:10;;;;;;;;;;;11.20;95.80;;;;;;4922284;29;19939;-96
2023/05/15 02:06:40;;;;;;;;;;;11.10;95.70;;;;;;4940264;29;19939;-96
2023/05/15 02:09:06;;;;;;;;;;;11.10;95.70;;;;;;4932930;29;19923;-96
2023/05/15 02:11:39;;;;;;;;;;;11.20;95.90;;;;;;4942235;29;19920;-96
2023/05/15 02:14:08;;;;;;;;;;;11.20;95.80;;;;;;4959517;29;19919;-96
2023/05/15 02:16:39;;;;;;;;;;;11.20;95.60;;;;;;4942824;29;19915;-96
2023/05/15 02:19:08;;;;;;;;;;;11.10;95.30;;;;;;4942512;29;19966;-96
2023/05/15 02:21:36;;;;;;;;;;;11.00;95.20;;;;;;4958176;29;19934;-96
2023/05/15 02:24:02;;;;;;;;;;;10.90;95.40;;;;;;4941725;29;19918;-96
2023/05/15 02:26:47;;;;;;;;;;;10.80;95.50;;;;;;4940581;29;19986;-96
2023/05/15 02:29:31;;;;;;;;;;;10.70;95.60;;;;;;4941136;29;19911;-96
2023/05/15 02:31:57;;;;;;;;;;;10.80;96.10;;;;;;4940324;29;19911;-96
2023/05/15 02:34:45;;;;;;;;;;;10.90;96.50;;;;;;4940105;29;19911;-96
2023/05/15 02:37:14;;;;;;;;;;;10.90;96.60;;;;;;4940151;29;19942;-96
2023/05/15 02:42:44;;;;;;;;;;;10.80;96.20;;;;;;4956509;29;19910;-96
2023/05/15 02:45:11;;;;;;;;;;;10.80;96.10;;;;;;4939344;29;19918;-96
2023/05/15 02:47:37;;;;;;;;;;;10.80;96.10;;;;;;4939567;29;19918;-96
2023/05/15 02:50:03;;;;;;;;;;;10.80;96.10;;;;;;4940544;29;19934;-96
2023/05/15 02:52:30;;;;;;;;;;;10.70;96.00;;;;;;4939243;29;19954;-96
2023/05/15 02:54:59;;;;;;;;;;;10.70;96.00;;;;;;4939458;29;19911;-96
2023/05/15 02:57:26;;;;;;;;;;;10.70;96.10;;;;;;4956705;29;19911;-96
2023/05/15 02:59:52;;;;;;;;;;;10.70;96.10;;;;;;4939166;29;19935;-96
2023/05/15 03:02:19;;;;;;;;;;;10.60;96.00;;;;;;4939069;29;19942;-96
2023/05/15 03:04:47;;;;;;;;;;;10.60;96.00;;;;;;4939090;29;19911;-96
2023/05/15 03:07:13;;;;;;;;;;;10.50;95.80;;;;;;4938334;29;19992;-96
2023/05/15 03:09:40;;;;;;;;;;;10.50;96.10;;;;;;4938195;29;19925;-96
2023/05/15 03:12:07;;;;;;;;;;;10.40;95.90;;;;;;4955374;29;19918;-96
2023/05/15 03:14:33;;;;;;;;;;;10.40;96.10;;;;;;4938226;29;19894;-96
2023/05/15 03:16:59;;;;;;;;;;;10.40;96.30;;;;;;4936188;29;19915;-96
2023/05/15 03:19:25;;;;;;;;;;;10.50;96.40;;;;;;4954734;29;19917;-96
2023/05/15 03:21:51;;;;;;;;;;;10.50;96.40;;;;;;4938421;29;19918;-96
2023/05/15 03:24:20;;;;;;;;;;;10.50;96.10;;;;;;4940187;29;19911;-96
2023/05/15 03:26:48;;;;;;;;;;;10.50;96.20;;;;;;4940660;29;20279;-96
2023/05/15 03:29:17;;;;;;;;;;;10.50;96.10;;;;;;4941347;29;19910;-96
2023/05/15 03:31:43;;;;;;;;;;;10.60;96.20;;;;;;4940306;29;19954;-96
2023/05/15 03:34:12;;;;;;;;;;;10.60;96.10;;;;;;4939363;29;19915;-96
2023/05/15 03:36:42;;;;;;;;;;;10.50;95.90;;;;;;4939675;29;19915;-96
2023/05/15 03:39:17;;;;;;;;;;;10.50;95.90;;;;;;4939459;29;19970;-96
2023/05/15 03:41:43;;;;;;;;;;;10.50;95.90;;;;;;4938684;29;19911;-96
2023/05/15 03:44:12;;;;;;;;;;;10.50;95.80;;;;;;4938867;29;19922;-96
2023/05/15 03:46:39;;;;;;;;;;;10.50;95.80;;;;;;4939186;29;20001;-96
2023/05/15 03:49:17;;;;;;;;;;;10.40;95.60;;;;;;4938825;29;19911;-96
2023/05/15 03:51:43;;;;;;;;;;;10.40;95.70;;;;;;4939625;29;19945;-96
2023/05/15 03:54:09;;;;;;;;;;;10.40;95.60;;;;;;4954809;29;19921;-96
2023/05/15 03:56:38;;;;;;;;;;;10.40;95.80;;;;;;4938483;29;19918;-96
2023/05/15 03:59:04;;;;;;;;;;;10.40;95.90;;;;;;4940574;29;19912;-96
2023/05/15 04:01:33;;;;;;;;;;;10.40;95.90;;;;;;4939331;29;19918;-96
2023/05/15 04:03:59;;;;;;;;;;;10.40;95.80;;;;;;4935394;29;19930;-96
2023/05/15 04:06:27;;;;;;;;;;;10.30;95.70;;;;;;4952739;29;19918;-96
2023/05/15 04:08:58;;;;;;;;;;;10.30;95.50;;;;;;4937207;29;19922;-96
2023/05/15 04:11:25;;;;;;;;;;;10.20;95.60;;;;;;4938795;29;19922;-96
2023/05/15 04:13:54;;;;;;;;;;;10.20;95.50;;;;;;4938616;29;19911;-96
2023/05/15 04:16:20;;;;;;;;;;;10.20;95.40;;;;;;4938455;29;19915;-96
2023/05/15 04:18:49;;;;;;;;;;;10.20;95.20;;;;;;4938732;29;19911;-96
2023/05/15 04:21:16;;;;;;;;;;;10.30;95.10;;;;;;4938935;29;19980;-96
2023/05/15 04:23:46;;;;;;;;;;;10.30;95.20;;;;;;4939024;29;20005;-96
2023/05/15 04:26:14;;;;;;;;;;;10.30;95.20;;;;;;4945132;29;19919;-96
2023/05/15 04:28:40;;;;;;;;;;;10.20;95.30;;;;;;4960119;29;19914;-96
2023/05/15 04:31:07;;;;;;;;;;;10.30;95.60;;;;;;4942550;29;19911;-96
2023/05/15 04:33:38;;;;;;;;;;;10.40;95.80;;;;;;4942695;29;19910;-96
2023/05/15 04:36:08;;;;;;;;;;;10.50;96.00;;;;;;4943741;29;20006;-96
2023/05/15 04:38:34;;;;;;;;;;;10.60;95.80;;;;;;4944201;29;19911;-96
2023/05/15 04:41:04;;;;;;;;;;;10.70;95.60;;;;;;4944551;29;19935;-96
2023/05/15 04:43:33;;;;;;;;;;;10.60;94.90;;;;;;4943284;29;19911;-96
2023/05/15 04:45:59;;;;;;;;;;;10.60;95.20;;;;;;4942869;29;19919;-96
2023/05/15 04:48:28;;;;;;;;;;;10.70;95.30;;;;;;4944441;29;19974;-96
2023/05/15 04:50:58;;;;;;;;;;;10.70;95.20;;;;;;4961529;29;19935;-96
2023/05/15 04:53:24;;;;;;;;;;;10.90;95.20;;;;;;4944590;29;19922;-96
2023/05/15 04:55:52;;;;;;;;;;;10.90;95.00;;;;;;4945063;29;19935;-96
2023/05/15 04:58:21;;;;;;;;;;;11.10;95.00;;;;;;4944612;29;19911;-96
2023/05/15 05:00:50;;;;;;;;;;;11.00;95.10;;;;;;4944851;29;19910;-96
2023/05/15 05:03:21;;;;;;;;;;;11.20;95.20;;;;;;4946485;29;19911;-96
2023/05/15 05:05:51;;;;;;;;;;;11.30;94.90;;;;;;4947755;29;19922;-96
2023/05/15 05:08:24;;;;;;;;;;;11.30;94.70;;;;;;4947016;29;19915;-96
2023/05/15 05:10:58;;;;;;;;;;;11.40;94.90;;;;;;4931751;29;19996;-96
2023/05/15 05:13:26;;;;;;;;;;;11.40;94.70;;;;;;4949027;29;19930;-96
2023/05/15 05:16:00;;;;;;;;;;;11.50;94.60;;;;;;4950266;29;19899;-96
2023/05/15 05:18:32;;;;;;;;;;;11.50;94.30;;;;;;4949213;29;20004;-96
2023/05/15 05:21:02;;;;;;;;;;;11.60;94.20;;;;;;4933687;29;19931;-96
2023/05/15 05:23:30;;;;;;;;;;;11.60;94.00;;;;;;4948777;29;20075;-96
2023/05/15 05:25:58;;;;;;;;;;;11.60;94.00;;;;;;4949471;29;20354;-96
2023/05/15 05:28:34;;;;;;;;;;;11.60;93.90;;;;;;4964787;29;19911;-96
2023/05/15 05:31:08;;;;;;;;;;;11.60;93.90;;;;;;4948705;29;19923;-96
2023/05/15 05:33:38;;;;;;;;;;;11.70;93.90;;;;;;4948466;29;19901;-96
2023/05/15 05:36:07;;;;;;;;;;;11.70;94.10;;;;;;4944942;29;19911;-96
2023/05/15 05:38:41;;;;;;;;;;;11.80;94.00;;;;;;4944518;29;19917;-96
2023/05/15 05:41:11;;;;;;;;;;;11.80;94.00;;;;;;4959947;29;19921;-96
2023/05/15 05:43:40;;;;;;;;;;;11.90;94.00;;;;;;4942547;29;19918;-96
2023/05/15 05:46:07;;;;;;;;;;;12.00;94.10;;;;;;4942386;29;19969;-96
2023/05/15 05:48:39;;;;;;;;;;;12.10;93.90;;;;;;4942194;29;19946;-96
2023/05/15 05:51:07;;;;;;;;;;;12.20;94.00;;;;;;4942638;29;19926;-96
2023/05/15 05:53:34;;;;;;;;;;;12.20;93.90;;;;;;4928296;29;19975;-96
2023/05/15 05:56:05;;;;;;;;;;;12.20;93.80;;;;;;4942457;29;19911;-96
2023/05/15 05:58:34;;;;;;;;;;;12.30;93.90;;;;;;4943578;29;19926;-96
2023/05/15 06:01:08;;;;;;;;;;;12.40;93.80;;;;;;4943126;29;19910;-96
2023/05/15 06:03:36;;;;;;;;;;;12.40;93.80;;;;;;4943245;29;19911;-96
2023/05/15 06:06:04;;;;;;;;;;;12.50;93.90;;;;;;4943973;29;19915;-96
2023/05/15 06:08:32;;;;;;;;;;;12.60;93.80;;;;;;5114717;23;19926;-96
2023/05/15 06:11:05;;;;;;;;;;;12.60;93.70;;;;;;4962529;29;19919;-96
2023/05/15 06:13:35;;;;;;;;;;;12.60;93.50;;;;;;4979766;29;19910;-96
2023/05/15 06:16:04;;;;;;;;;;;12.60;93.60;;;;;;4962753;29;19910;-96
2023/05/15 06:18:32;;;;;;;;;;;12.70;93.40;;;;;;4963459;29;19911;-96
2023/05/15 06:20:59;;;;;;;;;;;12.80;93.30;;;;;;4963206;29;19934;-96
2023/05/15 06:23:30;;;;;;;;;;;12.80;93.20;;;;;;4963560;29;19974;-96
2023/05/15 06:26:14;;;;;;;;;;;12.90;93.20;;;;;;4963437;29;19914;-96
2023/05/15 06:28:42;;;;;;;;;;;12.90;93.20;;;;;;4948555;29;19914;-96
2023/05/15 06:31:12;;;;;;;;;;;13.00;93.20;;;;;;4964315;29;19899;-96
2023/05/15 06:33:48;;;;;;;;;;;13.10;92.80;;;;;;4952711;29;19935;-96
2023/05/15 06:36:45;;;;;;;;;;;13.30;92.90;;;;;;4944753;29;19911;-96
2023/05/15 06:44:46;;;;;;;;;;;13.60;92.10;;;;;;5623842;23;19910;-96
2023/05/15 06:47:14;;;;;;;;;;;13.70;92.20;;;;;;4947317;29;19926;-96
2023/05/15 06:49:50;;;;;;;;;;;13.80;92.20;;;;;;4963737;29;19934;-96
2023/05/15 06:52:20;;;;;;;;;;;13.90;92.00;;;;;;4964600;29;19914;-96
2023/05/15 06:54:48;;;;;;;;;;;14.10;91.70;;;;;;4962500;29;19930;-96
2023/05/15 06:57:16;;;;;;;;;;;14.20;91.20;;;;;;4961971;29;19910;-96
2023/05/15 06:59:47;;;;;;;;;;;14.30;90.40;;;;;;4963947;29;19894;-96
2023/05/15 07:02:46;;;;;;;;;;;14.30;90.00;;;;;;4979624;28;19918;-96
2023/05/15 07:08:08;;;;;;;;;;;14.40;89.20;;;;;;5230714;23;19950;-96
2023/05/15 07:10:50;;;;;;;;;;;14.40;88.50;;;;;;4978139;29;19902;-96
2023/05/15 07:13:17;;;;;;;;;;;14.50;88.30;;;;;;4960824;29;19991;-96
2023/05/15 07:15:51;;;;;;;;;;;14.70;88.70;;;;;;4961064;29;19922;-96
2023/05/15 07:18:24;;;;;;;;;;;14.80;88.50;;;;;;4946302;29;19906;-96
2023/05/15 07:20:52;;;;;;;;;;;14.80;87.70;;;;;;4962016;29;19934;-96
2023/05/15 07:23:19;;;;;;;;;;;14.80;87.30;;;;;;4960023;29;19911;-96
2023/05/15 07:25:47;;;;;;;;;;;14.90;86.90;;;;;;4957828;29;19922;-96
2023/05/15 07:28:13;;;;;;;;;;;14.90;86.70;;;;;;4975959;28;19911;-96
2023/05/15 07:30:42;;;;;;;;;;;14.90;86.80;;;;;;4958433;29;19910;-96
2023/05/15 07:33:08;;;;;;;;;;;14.90;86.50;;;;;;4948992;29;19917;-96
2023/05/15 07:35:43;;;;;;;;;;;14.90;86.60;;;;;;4940694;29;19931;-96
2023/05/15 07:38:10;;;;;;;;;;;15.00;86.20;;;;;;4941675;29;19911;-96
2023/05/15 07:40:37;;;;;;;;;;;15.10;86.00;;;;;;4941807;29;19978;-96
2023/05/15 07:43:04;;;;;;;;;;;15.10;86.00;;;;;;4939827;29;19911;-96
2023/05/15 07:45:31;;;;;;;;;;;15.30;86.80;;;;;;4956471;29;19926;-96
2023/05/15 07:47:57;;;;;;;;;;;15.30;87.30;;;;;;4954933;29;19970;-96
2023/05/15 07:50:23;;;;;;;;;;;15.30;86.10;;;;;;4936249;29;19918;-96
2023/05/15 07:52:49;;;;;;;;;;;15.30;85.50;;;;;;4935392;29;19911;-96
2023/05/15 07:55:15;;;;;;;;;;;15.40;85.40;;;;;;4935102;29;19917;-96
2023/05/15 07:57:41;;;;;;;;;;;15.50;85.90;;;;;;4934732;29;19917;-96
2023/05/15 08:00:12;;;;;;;;;;;15.60;85.40;;;;;;4950003;29;19918;-96
2023/05/15 08:02:39;;;;;;;;;;;15.70;84.60;;;;;;4935289;29;19954;-96
2023/05/15 08:05:05;;;;;;;;;;;15.60;84.20;;;;;;4934345;29;19922;-96
2023/05/15 08:07:34;;;;;;;;;;;15.60;84.70;;;;;;4933373;29;20360;-96
2023/05/15 08:10:00;;;;;;;;;;;15.70;85.50;;;;;;4951273;29;19930;-96
2023/05/15 08:12:26;;;;;;;;;;;15.80;85.70;;;;;;4932576;29;19911;-96
2023/05/15 08:14:55;;;;;;;;;;;16.00;85.20;;;;;;4948618;29;19911;-96
2023/05/15 08:17:20;;;;;;;;;;;16.10;84.70;;;;;;4927598;29;19918;-96
2023/05/15 08:19:46;;;;;;;;;;;16.20;85.40;;;;;;4943335;29;19911;-96
2023/05/15 08:22:12;;;;;;;;;;;16.30;85.20;;;;;;4926452;29;19938;-96
2023/05/15 08:24:38;;;;;;;;;;;16.30;84.30;;;;;;4945089;29;19914;-96
2023/05/15 08:27:09;;;;;;;;;;;16.50;83.90;;;;;;4937396;29;19915;-96
2023/05/15 08:29:39;;;;;;;;;;;16.40;84.20;;;;;;4940412;29;19976;-96
2023/05/15 08:32:09;;;;;;;;;;;16.50;84.20;;;;;;4940182;29;19918;-96
2023/05/15 08:34:35;;;;;;;;;;;16.60;85.00;;;;;;4940968;29;19914;-96
2023/05/15 08:37:03;;;;;;;;;;;16.60;83.20;;;;;;4930177;29;19918;-96
2023/05/15 08:39:29;;;;;;;;;;;16.80;83.20;;;;;;4936178;29;19911;-96
2023/05/15 08:42:14;;;;;;;;;;;16.80;82.80;;;;;;4954207;29;20294;-96
2023/05/15 08:44:40;;;;;;;;;;;16.80;82.40;;;;;;4938058;29;19942;-96
2023/05/15 08:47:07;;;;;;;;;;;16.80;83.10;;;;;;4939216;29;19915;-96
2023/05/15 08:49:47;;;;;;;;;;;16.80;82.10;;;;;;4956582;29;19917;-96
2023/05/15 20:53:51;;;;;;;;;;;16.50;86.90;;;;;;5183173;23;19934;-96
2023/05/15 20:56:29;;;;;;;;;;;16.40;86.70;;;;;;4960139;29;19926;-96
2023/05/15 20:59:09;;;;;;;;;;;16.40;86.60;;;;;;4977874;28;19919;-96
2023/05/15 21:01:36;;;;;;;;;;;16.30;86.70;;;;;;4962896;29;19945;-96
2023/05/15 21:04:21;;;;;;;;;;;16.20;87.80;;;;;;4962563;29;19929;-96
2023/05/15 21:06:53;;;;;;;;;;;16.20;88.10;;;;;;4977442;28;19918;-96
2023/05/15 21:09:30;;;;;;;;;;;16.10;88.60;;;;;;4955154;29;19917;-96
2023/05/15 21:12:02;;;;;;;;;;;16.10;88.50;;;;;;4966547;29;19914;-96
2023/05/15 21:14:51;;;;;;;;;;;16.00;88.70;;;;;;4966061;28;19899;-96
2023/05/15 21:17:24;;;;;;;;;;;16.00;88.20;;;;;;4965757;29;19899;-96
2023/05/15 21:19:57;;;;;;;;;;;16.00;88.60;;;;;;4982974;29;19901;-96
2023/05/15 21:22:25;;;;;;;;;;;15.90;88.40;;;;;;4942188;29;19921;-96
2023/05/15 21:25:00;;;;;;;;;;;15.90;88.50;;;;;;4943832;29;19922;-96
2023/05/15 22:14:28;;;;;;;;;;;15.80;88.20;;;;;;5793603;23;19923;-96
2023/05/15 22:51:01;;;;;;;;;;;15.50;86.50;;;;;;5192302;23;19911;-96
2023/05/15 22:53:38;;;;;;;;;;;15.50;86.50;;;;;;4948999;29;19922;-96
